Flight Track Log - Related Links

Times and Time Zones

All times are in EDT time to prevent confusion due to time zone crossing. See the N5352K flight status page for this flight to view local times or setup timezone preferences in your user account.

Time Position Orientation Groundspeed Altitude Reporting Facility
EDT Latitude Longitude Course Direction KTS MPH feet Rate Location/Type
Mon 10:38:00 AM 27.9354 -80.6047 168° South  Level FlightAware Approximate
Mon 10:38:19 AM 28.2098 -80.6394 156° South 108 124 3,500  Level FlightAware ADS-B
Mon 10:38:38 AM 28.1946 -80.6319 160° South 104 120 3,500  Level FlightAware ADS-B
Mon 10:39:02 AM 28.1837 -80.6273 158° South 97 112 3,500  Level FlightAware ADS-B
Mon 10:39:21 AM 28.1767 -80.6238 150° Southeast 107 123 3,500  Level FlightAware ADS-B
Mon 10:39:42 AM 28.1665 -80.6161 143° Southeast 108 124 3,500  Level FlightAware ADS-B
Mon 10:40:05 AM 28.1574 -80.6093 147° Southeast 106 122 3,500  Level FlightAware ADS-B
Mon 10:40:25 AM 28.1482 -80.6028 152° Southeast 108 124 3,500  Level FlightAware ADS-B
Mon 10:40:45 AM 28.1393 -80.5970 148° Southeast 107 123 3,500  Level FlightAware ADS-B
Mon 10:41:06 AM 28.1313 -80.5912 146° Southeast 106 122 3,500  Level FlightAware ADS-B
Mon 10:41:25 AM 28.1230 -80.5852 145° Southeast 107 123 3,500  Level FlightAware ADS-B
Mon 10:41:46 AM 28.1147 -80.5784 143° Southeast 106 122 3,500  Level FlightAware ADS-B
Mon 10:42:10 AM 28.1064 -80.5715 149° Southeast 104 120 3,500  Level FlightAware ADS-B
Mon 10:43:11 AM 28.0789 -80.5567 156° South 101 116 3,500  Level FlightAware ADS-B
Mon 10:43:30 AM 28.0753 -80.5548 154° Southeast 105 121 3,500 -95 Level FlightAware ADS-B
Mon 10:44:14 AM 28.0521 -80.5429 161° South 101 116 3,400 -79 Descending FlightAware ADS-B
Mon 10:44:46 AM 28.0378 -80.5354 151° Southeast 102 117 3,400 100 Level FlightAware ADS-B
Mon 10:45:14 AM 28.0269 -80.5284 149° Southeast 102 117 3,500 63 Climbing FlightAware ADS-B
Mon 10:46:22 AM 27.9992 -80.5133 149° Southeast 103 119 3,500  Level Miami Center
Mon 10:47:24 AM 27.9728 -80.4994 155° Southeast 102 117 3,500  Level Miami Center
Mon 10:48:26 AM 27.9508 -80.4853 150° Southeast 102 117 3,500 48 Level Miami Center
Mon 10:49:28 AM 27.9208 -80.4678 153° Southeast 101 116 3,600 48 Climbing Miami Center
Mon 10:50:30 AM 27.8972 -80.4525 150° Southeast 101 116 3,600  Level Miami Center
Mon 10:51:32 AM 27.8703 -80.4381 155° Southeast 102 117 3,600 -48 Level Miami Center
Mon 10:52:34 AM 27.8425 -80.4250 157° South 101 116 3,500  Descending Miami Center
Mon 10:53:36 AM 27.8158 -80.4108 155° Southeast 102 117 3,600 48 Climbing Miami Center
Mon 10:54:38 AM 27.7892 -80.3956 153° Southeast 102 117 3,600  Level Miami Center
Mon 10:55:40 AM 27.7611 -80.3828 158° South 102 117 3,600  Level Miami Center
Mon 10:56:42 AM 27.7353 -80.3711 158° South 102 117 3,600 -48 Level Miami Center
Mon 10:57:44 AM 27.7064 -80.3614 163° South 102 117 3,500  Descending Miami Center
Mon 10:58:46 AM 27.6783 -80.3533 166° South 102 117 3,600 48 Climbing Miami Center
Mon 10:59:48 AM 27.6494 -80.3428 162° South 102 117 3,600  Level Miami Center
Mon 11:00:50 AM 27.6211 -80.3286 156° South 103 119 3,600  Level Miami Center
Mon 11:01:52 AM 27.5931 -80.3161 158° South 104 120 3,600 -48 Level Miami Center
Mon 11:02:54 AM 27.5664 -80.3097 168° South 103 119 3,500  Descending Miami Center
Mon 11:03:56 AM 27.5386 -80.3025 167° South 101 116 3,600  Climbing Miami Center
Mon 11:04:59 AM 27.5100 -80.2908 160° South 102 117 3,500 -48 Descending Miami Center
Mon 11:06:01 AM 27.4831 -80.2783 158° South 102 117 3,500  Level Miami Center
Mon 11:07:03 AM 27.4558 -80.2692 163° South 101 116 3,500 48 Level Miami Center
Mon 11:08:05 AM 27.4286 -80.2608 165° South 99 114 3,600  Climbing Miami Center
Mon 11:09:07 AM 27.4039 -80.2458 152° Southeast 99 114 3,500 -48 Descending Miami Center
Mon 11:10:09 AM 27.3761 -80.2347 160° South 100 115 3,500  Level Miami Center
Mon 11:11:11 AM 27.3489 -80.2247 162° South 100 115 3,500  Level Miami Center
Mon 11:12:13 AM 27.3233 -80.2100 153° Southeast 100 115 3,500  Level Miami Center
Mon 11:13:15 AM 27.2967 -80.1969 156° South 100 115 3,500 -144 Level Miami Center
Mon 11:14:18 AM 27.2706 -80.1839 156° South 100 115 3,200 -432 Descending Miami Center
Mon 11:15:20 AM 27.2417 -80.1733 162° South 101 116 2,600 -339 Descending Miami Center
Mon 11:16:22 AM 27.2147 -80.1617 159° South 100 115 2,500  Descending Miami Center
Mon 11:17:24 AM 27.1903 -80.1517 160° South 99 114 2,600 48 Climbing Miami Center
Mon 11:18:27 AM 27.1644 -80.1381 155° Southeast 99 114 2,600  Level Miami Center
Mon 11:19:29 AM 27.1369 -80.1283 163° South 99 114 2,600 194 Level Miami Center
Mon 11:20:31 AM 27.1119 -80.1158 156° South 98 113 3,000 484 Climbing Miami Center
Mon 11:21:33 AM 27.0897 -80.1075 162° South 84 97 3,600 242 Climbing Miami Center
Mon 11:22:35 AM 27.0622 -80.0933 155° Southeast 101 116 3,500 -48 Descending Miami Center
Mon 11:23:37 AM 27.0336 -80.0947 182° South 99 114 3,500 48 Level Miami Center
Mon 11:24:40 AM 27.0069 -80.0794 153° Southeast 101 116 3,600 48 Climbing Miami Center
Mon 11:25:42 AM 26.9778 -80.0664 158° South 103 119 3,600  Level Miami Center
Mon 11:26:44 AM 26.9511 -80.0583 165° South 105 121 3,600  Level Miami Center
Mon 11:27:46 AM 26.9228 -80.0511 167° South 104 120 3,600 -48 Level Miami Center
Mon 11:28:48 AM 26.8933 -80.0400 161° South 104 120 3,500 -48 Descending Miami Center
Mon 11:29:50 AM 26.8647 -80.0339 169° South 103 119 3,500 48 Level Miami Center
Mon 11:30:52 AM 26.8381 -80.0283 169° South 95 109 3,600  Climbing Miami Center
Mon 11:31:55 AM 26.8089 -80.0269 178° South 99 114 3,500  Descending Miami Center
Mon 11:32:57 AM 26.7833 -80.0211 168° South 97 112 3,600 48 Climbing Miami Center
Mon 11:33:59 AM 26.7561 -80.0225 183° South 90 104 3,600  Level Miami Center
Mon 11:35:01 AM 26.7314 -80.0208 177° South 90 104 3,600  Level Miami Center
Mon 11:36:03 AM 26.7033 -80.0194 177° South 94 108 3,600  Level Miami Center
Mon 11:37:05 AM 26.6775 -80.0186 178° South 92 106 3,600  Level Miami Center
Mon 11:38:07 AM 26.6489 -80.0211 184° South 95 109 3,600  Level Miami Center
Mon 11:39:09 AM 26.6231 -80.0231 184° South 94 108 3,600  Level Miami Center
Mon 11:40:11 AM 26.5961 -80.0275 188° South 90 104 3,600  Level Miami Center
Mon 11:41:13 AM 26.5700 -80.0300 185° South 92 106 3,600 -48 Level Miami Center
Mon 11:42:15 AM 26.5439 -80.0267 173° South 97 112 3,500  Descending Miami Center
Mon 11:43:18 AM 26.5172 -80.0317 190° South 91 105 3,600 48 Climbing Miami Center
Mon 11:44:20 AM 26.4919 -80.0347 186° South 91 105 3,600  Level Miami Center
Mon 11:45:22 AM 26.4650 -80.0392 188° South 92 106 3,600 -48 Level Miami Center
Mon 11:46:24 AM 26.4381 -80.0456 192° South 93 107 3,500 78 Descending Miami Center
Mon 11:46:39 AM 26.4311 -80.0464 186° South 93 107 3,700 102 Climbing Miami Center
Mon 11:47:23 AM 26.4119 -80.0497 189° South 91 105 3,600 -61 Descending Miami Center
Mon 11:48:18 AM 26.3886 -80.0550 191° South 94 108 3,600 -92 Level Miami Center
Mon 11:48:28 AM 26.3861 -80.0547 174° South 92 106 3,500  Descending Miami Center
Mon 11:49:25 AM 26.3592 -80.0550 181° South 97 112 3,600  Climbing Miami Center
Mon 11:50:26 AM 26.3317 -80.0600 189° South 94 108 3,500 -295 Descending Miami Center
Mon 11:51:27 AM 26.3064 -80.0650 190° South 98 113 3,000 -231 Descending Miami Center
Mon 11:52:36 AM 26.2744 -80.0694 187° South 96 110 3,000  Level Miami Center
Mon 11:53:29 AM 26.2511 -80.0747 191° South 95 109 3,000 53 Level Miami Center
Mon 11:54:30 AM 26.2233 -80.0842 197° South 105 121 3,100 169 Climbing Miami Center
Mon 11:54:40 AM 26.2233 -80.0819 90° East 101 116 3,200 -787 Climbing Miami Center
Mon 11:55:31 AM 26.1958 -80.0914 197° South 103 119 2,300 -1,065 Descending Miami Center
Mon 11:55:42 AM 26.1914 -80.0903 167° South 101 116 2,100 -1,161 Descending Miami Center
Mon 11:56:33 AM 26.1661 -80.0961 192° South 105 121 1,100 -1,161 Descending Miami Center
Mon 11:56:44 AM 26.1614 -80.0958 177° South 99 114 900 -600 Descending Miami Center
Mon 11:57:33 AM 26.1389 -80.0964 181° South 101 116 500 -190 Descending Miami Center
Mon 11:57:47 AM 26.1342 -80.0936 152° Southeast 101 116 700  Climbing Miami Center
Mon 11:58:35 AM 26.1147 -80.0806 149° Southeast 99 114 500 -97 Descending Miami Center
Mon 11:58:49 AM 26.1094 -80.0775 153° Southeast 102 117 600  Climbing Miami Center
Mon 11:59:36 AM 26.0861 -80.0717 167° South 101 116 500  Descending Miami Center
Mon 11:59:51 AM 26.0806 -80.0725 188° South 102 117 600  Climbing Miami Center
Mon 12:00:31 PM 26.0606 -80.0767 191° South 109 125 500 -97 Descending Miami Center
Mon 12:00:53 PM 26.0536 -80.0847 226° Southwest 107 123 500  Level Miami Center
Mon 12:01:32 PM 26.0403 -80.1006 227° Southwest 97 112 500 -97 Level Miami Center
Mon 12:01:55 PM 26.0314 -80.1064 211° Southwest 105 121 400 -197 Descending Miami Center
Mon 12:02:33 PM 26.0144 -80.1125 198° South 101 116 300 -97 Descending Miami Center
Mon 12:02:57 PM 26.0042 -80.1133 184° South 102 117 300 -98 Level Miami Center
Mon 12:03:34 PM 25.9869 -80.1150 185° South 99 114 200 -97 Descending Miami Center
Mon 12:03:59 PM 25.9764 -80.1158 184° South 102 117 200 82 Level Miami Center
Mon 12:04:47 PM 25.9533 -80.1172 183° South 99 114 300 290 Climbing Miami Center
Mon 12:05:01 PM 25.9486 -80.1164 171° South 97 112 500 735 Climbing Miami Center
Mon 12:05:36 PM 25.9344 -80.1158 178° South 88 101 900 581 Climbing Miami Center
Mon 12:06:03 PM 25.9272 -80.1147 172° South 91 105 1,100 197 Climbing Miami Center
Mon 12:06:37 PM 25.9186 -80.1353 245° Southwest 100 115 1,100  Level Miami Center
Mon 12:07:05 PM 25.9194 -80.1436 276° West 98 113 1,100 98 Level Miami Center
Mon 12:07:38 PM 25.9192 -80.1631 269° West 92 106 1,200 290 Climbing Miami Center
Mon 12:08:07 PM 25.9178 -80.1767 264° West 91 105 1,400  Climbing Miami Center
Mon 12:08:39 PM 25.9172 -80.1931 268° West 92 106 1,200 -387 Descending Miami Center
Mon 12:09:09 PM 25.9167 -80.2058 267° West 91 105 1,000 -436 Descending Miami Center
Mon 12:09:34 PM 25.9158 -80.2161 265° West 74 85 800 -290 Descending Miami Center
Mon 12:10:11 PM 25.9158 -80.2300 270° West 84 97 700 -358 Descending Miami Center
Mon 12:10:41 PM 25.9139 -80.2439 261° West 67 77 400 -387 Descending Miami Center
Mon 12:11:13 PM 25.9144 -80.2514 275° West 73 84 300 -191 Descending Miami Center
Mon 12:12:15 PM 25.9136 -80.2719 267° West 72 83 100 -194 Descending Miami Center

Login

Don't have an account? Register now (free) for customized features, flight alerts, and more!